Darstellungsparameter: Aktuell verwendete Einstellungen:
Skalierung der Graphiken ... ?
xyx+y,   Skalierungsfaktor:      Skalierung: Modus: x, Faktor: 1
Darstellungszeitraum ... ?
Vom - - bis: - -   Zeitraum: 14.04.2019 - 16.04.2019
Min/Max/Avg-Anzeige ... ?
Zeige MMA aktuell
Zeige MMA Monat
Zeige MMA alles
Zeige --A aktuell
Zeige --A Monat
Zeige --A alles
Keine MMA-Anzeige
MMA:
Average (ber die Originaldaten)
MMA-Basis: 14.04.2019 - 16.04.2019
Quicknavigation für Darstellung... ?
Tage:      1T, 2T, 3T, 5T -1T -2T -3T -5T +1T +2T +3T +5T
Wochen: 1W, 2W, 3W -1W -2W -3W +1W +2W +3W
Monate: 1M, 3M, 6M -1M -3M -6M +1M +3M +6M
Jahre:    1J, 3J, 5J, 10J -1J -3J -5J -10J +1J +3J +5J +10J
Nutze für die Darstellung ... ?
Originaldaten oder ...
Mittelwerte Minima Maxima auf...
Stundenbasis Tagesbasis Wochenbasis
Monatsbasis Jahresbasis      Datenbasis: Mittelwerte auf Stundenbasis
Darstellen als:
Statistik (Auto) Statistik J:M      Darstellung:
Zur Graphik,    zurück zur Übersicht aller Sensoren.
 
Tabellarische Datenbersicht: ?
 
Sensor: Nr:Datum:Temp:Abs-Feuchte:Windchill:Wind:
Aussen-T/F 1 14-04-2019 00:00:00 0.475 C 4.56 g/m*3 0.48 C 0 km/h
2 14-04-2019 01:00:00 0.45 C 4.63 g/m*3 0.45 C 0 km/h
3 14-04-2019 02:00:00 1.23333 C 4.92 g/m*3 1.23 C 0.13333 km/h
4 14-04-2019 03:00:00 1.575 C 5.02 g/m*3 1.58 C 0.53333 km/h
5 14-04-2019 04:00:00 1.63333 C 5.04 g/m*3 1.63 C 0.26667 km/h
6 14-04-2019 05:00:00 1.56667 C 5.05 g/m*3 1.57 C 0.66667 km/h
7 14-04-2019 06:00:00 1.25833 C 4.97 g/m*3 1.26 C 0 km/h
8 14-04-2019 07:00:00 1.225 C 5.01 g/m*3 1.23 C 0 km/h
9 14-04-2019 08:00:00 1.5 C 5.11 g/m*3 1.5 C 0 km/h
10 14-04-2019 09:00:00 2.66667 C 5.57 g/m*3 2.67 C 0.13333 km/h
11 14-04-2019 10:00:00 4.15 C 6.06 g/m*3 4.15 C 4.69167 km/h
12 14-04-2019 11:00:00 6.00833 C 6.14 g/m*3 4.71 C 6.575 km/h
13 14-04-2019 12:00:00 7.71667 C 5.62 g/m*3 5.62 C 11.55833 km/h
14 14-04-2019 13:00:00 8.99167 C 5.14 g/m*3 7.21 C 11.275 km/h
15 14-04-2019 14:00:00 10.43333 C 5.05 g/m*3 8.63 C 13.56667 km/h
16 14-04-2019 15:00:00 11.46667 C 4.99 g/m*3 11.47 C 12.89167 km/h
17 14-04-2019 16:00:00 12.08333 C 4.9 g/m*3 12.08 C 12.63333 km/h
18 14-04-2019 17:00:00 12.50833 C 4.81 g/m*3 12.51 C 13.69167 km/h
19 14-04-2019 18:00:00 12.06667 C 4.87 g/m*3 12.07 C 12.625 km/h
20 14-04-2019 19:00:00 10.99167 C 5.18 g/m*3 9.87 C 9.66667 km/h
21 14-04-2019 20:00:00 8.25 C 5.41 g/m*3 8.25 C 2.40833 km/h
22 14-04-2019 21:00:00 5.925 C 5.5 g/m*3 5.93 C 2.14167 km/h
23 14-04-2019 22:00:00 4.61667 C 5.42 g/m*3 4.62 C 1.86667 km/h
24 14-04-2019 23:00:00 4.06667 C 5.39 g/m*3 4.07 C 1.6 km/h
25 15-04-2019 00:00:00 4.11667 C 5.51 g/m*3 4.12 C 0.93333 km/h
Sensor: Nr:Datum:Temp:Abs-Feuchte:Windchill:Wind:
Aussen-T/F 26 15-04-2019 01:00:00 5.075 C 5.83 g/m*3 5.08 C 0.53333 km/h
27 15-04-2019 02:00:00 5.64167 C 5.91 g/m*3 5.64 C 0.26667 km/h
28 15-04-2019 03:00:00 4.81667 C 5.71 g/m*3 4.82 C 0.66667 km/h
29 15-04-2019 04:00:00 4.78333 C 5.81 g/m*3 4.78 C 0 km/h
30 15-04-2019 05:00:00 4.26667 C 5.68 g/m*3 4.27 C 0.4 km/h
31 15-04-2019 06:00:00 4.48333 C 5.87 g/m*3 4.48 C 0 km/h
32 15-04-2019 07:00:00 5.1 C 6.13 g/m*3 5.1 C 0 km/h
33 15-04-2019 08:00:00 5.98333 C 6.38 g/m*3 5.98 C 2.14167 km/h
34 15-04-2019 09:00:00 7.175 C 6.61 g/m*3 5.98 C 6.84167 km/h
35 15-04-2019 10:00:00 8.34167 C 6.78 g/m*3 6.68 C 9.83333 km/h
36 15-04-2019 11:00:00 10.15833 C 7.1 g/m*3 9.48 C 6.70833 km/h
37 15-04-2019 12:00:00 12.475 C 7.23 g/m*3 12.48 C 13.025 km/h
38 15-04-2019 13:00:00 14.29167 C 7.15 g/m*3 14.29 C 15.16667 km/h
39 15-04-2019 14:00:00 16.025 C 7.25 g/m*3 16.02 C 14.23333 km/h
40 15-04-2019 15:00:00 17.53333 C 6.95 g/m*3 17.53 C 16.63333 km/h
41 15-04-2019 16:00:00 18.31667 C 7 g/m*3 18.32 C 14.75833 km/h
42 15-04-2019 17:00:00 18.95833 C 6.68 g/m*3 18.96 C 11.7 km/h
43 15-04-2019 18:00:00 19.13333 C 6.32 g/m*3 19.13 C 11.95833 km/h
44 15-04-2019 19:00:00 18.19167 C 6.42 g/m*3 18.19 C 5.89167 km/h
45 15-04-2019 20:00:00 14.2 C 6.99 g/m*3 14.2 C 3.6 km/h
46 15-04-2019 21:00:00 11.575 C 6.81 g/m*3 11.58 C 3.6 km/h
47 15-04-2019 22:00:00 10.24167 C 6.5 g/m*3 10.24 C 0.53333 km/h
48 15-04-2019 23:00:00 9.24167 C 6.19 g/m*3 9.24 C 3.6 km/h
49 16-04-2019 00:00:00 8.16667 C 5.98 g/m*3 8.17 C 4.66667 km/h
50 16-04-2019 01:00:00 7.25833 C 5.82 g/m*3 7.26 C 2.93333 km/h
Sensor: Nr:Datum:Temp:Abs-Feuchte:Windchill:Wind:
Aussen-T/F 51 16-04-2019 02:00:00 6.48333 C 5.69 g/m*3 6.48 C 2.53333 km/h
52 16-04-2019 03:00:00 6.06667 C 5.55 g/m*3 6.07 C 2 km/h
53 16-04-2019 04:00:00 5.83333 C 5.4 g/m*3 5.83 C 2.66667 km/h
54 16-04-2019 05:00:00 5.50833 C 5.35 g/m*3 5.51 C 2.93333 km/h
55 16-04-2019 06:00:00 4.99167 C 5.27 g/m*3 4.99 C 1.46667 km/h
56 16-04-2019 07:00:00 3.91667 C 5.23 g/m*3 3.92 C 0 km/h
57 16-04-2019 08:00:00 4.51667 C 5.48 g/m*3 4.52 C 0.4 km/h
58 16-04-2019 09:00:00 6.2 C 5.94 g/m*3 6.2 C 0.66667 km/h
59 16-04-2019 10:00:00 10.39167 C 6.13 g/m*3 10.39 C 3.875 km/h
60 16-04-2019 11:00:00 13.69167 C 6.06 g/m*3 13.69 C 6.85833 km/h
61 16-04-2019 12:00:00 15.59167 C 6.26 g/m*3 15.59 C 9.28333 km/h
62 16-04-2019 13:00:00 17.025 C 6.68 g/m*3 17.02 C 9.41667 km/h
63 16-04-2019 14:00:00 18.3 C 7.24 g/m*3 18.3 C 9.14167 km/h
64 16-04-2019 15:00:00 19.025 C 7.4 g/m*3 19.02 C 8.45833 km/h
65 16-04-2019 16:00:00 18.85833 C 7.5 g/m*3 18.86 C 7.24167 km/h
66 16-04-2019 17:00:00 18.09167 C 8.11 g/m*3 18.09 C 16.36667 km/h
67 16-04-2019 18:00:00 15.5 C 8.21 g/m*3 15.5 C 12.1 km/h
68 16-04-2019 19:00:00 14.63333 C 8.39 g/m*3 14.63 C 2.55 km/h
69 16-04-2019 20:00:00 13.25833 C 8.37 g/m*3 13.26 C 0.13333 km/h
70 16-04-2019 21:00:00 12.29167 C 8.25 g/m*3 12.29 C 0.8 km/h
71 16-04-2019 22:00:00 11.825 C 8.35 g/m*3 11.83 C 0.66667 km/h
72 16-04-2019 23:00:00 11.475 C 8.29 g/m*3 11.48 C 0 km/h

Maximal/Minimal-Werte vom 14.04.2019 - 16.04.2019

Sensor Min Max Avg
Temp
(Aussen-T/F)
0.3 °C
14-04-2019  00:50:00
20.2 °C
16-04-2019  17:00:00
9.05 °C
Abs-Feuchte
(Aussen-T/F)
4.56 g/m*3
14-04-2019  00:00:00
8.39 g/m*3
16-04-2019  19:00:00
6.03 g/m*3
Windchill
(Aussen-T/F)
0.45 C
14-04-2019  01:00:00
19.13 C
15-04-2019  18:00:00
8.77 C

Die Daten stammen von einer Davis Vantage Pro 2 Wetter-Station und werden unter Linux mit der Software wview2wettercgi und aufbereitet. Alle Angaben erfolgen ohne Gewähr für ihre Vollständigkeit oder Richtigkeit.
Kontakt: Rainer Krienke krienke@uni-koblenz.de . Meine Webseiten an der Uni Koblenz oder privat.
Version: $Revision: 0.78 $